sensor_id;sensor_type;location;lat;lon;timestamp;pressure;altitude;pressure_sealevel;temperature;humidity
22582;BME280;47125;48.542;9.052;2023-05-16T00:03:44;95719.94;;;14.16;76.23
22582;BME280;47125;48.542;9.052;2023-05-16T00:13:46;95716.97;;;14.13;76.92
22582;BME280;47125;48.542;9.052;2023-05-16T00:23:50;95717.25;;;14.11;76.37
22582;BME280;47125;48.542;9.052;2023-05-16T00:33:53;95716.63;;;13.79;78.33
22582;BME280;47125;48.542;9.052;2023-05-16T00:43:57;95720.16;;;13.85;80.04
22582;BME280;47125;48.542;9.052;2023-05-16T00:53:59;95707.22;;;13.76;79.78
22582;BME280;47125;48.542;9.052;2023-05-16T01:04:04;95706.94;;;13.73;79.84
22582;BME280;47125;48.542;9.052;2023-05-16T01:14:08;95705.06;;;13.73;80.40
22582;BME280;47125;48.542;9.052;2023-05-16T01:24:19;95720.63;;;13.66;81.24
22582;BME280;47125;48.542;9.052;2023-05-16T01:34:25;95719.81;;;13.66;80.67
22582;BME280;47125;48.542;9.052;2023-05-16T01:44:28;95710.72;;;13.72;80.99
22582;BME280;47125;48.542;9.052;2023-05-16T01:54:34;95711.78;;;13.71;81.24
22582;BME280;47125;48.542;9.052;2023-05-16T02:04:38;95714.22;;;13.72;79.80
22582;BME280;47125;48.542;9.052;2023-05-16T02:14:42;95721.69;;;13.60;80.28
22582;BME280;47125;48.542;9.052;2023-05-16T02:24:44;95728.09;;;13.59;80.88
22582;BME280;47125;48.542;9.052;2023-05-16T02:34:48;95717.09;;;13.56;81.40
22582;BME280;47125;48.542;9.052;2023-05-16T02:44:51;95727.03;;;13.60;79.92
22582;BME280;47125;48.542;9.052;2023-05-16T02:54:54;95723.25;;;13.56;80.22
22582;BME280;47125;48.542;9.052;2023-05-16T03:05:16;95720.88;;;13.60;79.35
22582;BME280;47125;48.542;9.052;2023-05-16T03:15:21;95706.34;;;13.51;79.03
22582;BME280;47125;48.542;9.052;2023-05-16T03:25:23;95720.50;;;13.41;79.07
22582;BME280;47125;48.542;9.052;2023-05-16T03:35:28;95721.84;;;13.44;79.76
22582;BME280;47125;48.542;9.052;2023-05-16T03:45:30;95727.00;;;13.50;79.25
22582;BME280;47125;48.542;9.052;2023-05-16T03:55:34;95713.03;;;13.48;79.59
22582;BME280;47125;48.542;9.052;2023-05-16T04:05:37;95724.84;;;13.47;79.44
22582;BME280;47125;48.542;9.052;2023-05-16T04:15:41;95746.53;;;13.41;80.36
22582;BME280;47125;48.542;9.052;2023-05-16T04:25:43;95750.06;;;13.51;80.16
22582;BME280;47125;48.542;9.052;2023-05-16T04:35:47;95743.31;;;13.44;81.03
22582;BME280;47125;48.542;9.052;2023-05-16T04:45:50;95742.03;;;13.51;80.78
22582;BME280;47125;48.542;9.052;2023-05-16T04:55:55;95745.25;;;13.58;80.92
22582;BME280;47125;48.542;9.052;2023-05-16T05:05:57;95746.66;;;13.71;80.74
22582;BME280;47125;48.542;9.052;2023-05-16T05:16:01;95756.28;;;13.62;80.61
22582;BME280;47125;48.542;9.052;2023-05-16T05:26:05;95756.56;;;13.65;80.83
22582;BME280;47125;48.542;9.052;2023-05-16T05:36:08;95769.75;;;13.77;80.92
22582;BME280;47125;48.542;9.052;2023-05-16T05:46:11;95772.97;;;13.79;80.80
22582;BME280;47125;48.542;9.052;2023-05-16T05:56:15;95777.22;;;13.65;81.67
22582;BME280;47125;48.542;9.052;2023-05-16T06:06:17;95783.63;;;13.54;81.89
22582;BME280;47125;48.542;9.052;2023-05-16T06:16:24;95787.78;;;13.82;80.92
22582;BME280;47125;48.542;9.052;2023-05-16T06:26:26;95786.41;;;13.74;81.17
22582;BME280;47125;48.542;9.052;2023-05-16T06:36:30;95799.53;;;13.70;80.25
22582;BME280;47125;48.542;9.052;2023-05-16T06:46:32;95797.13;;;13.69;80.49
22582;BME280;47125;48.542;9.052;2023-05-16T06:56:36;95798.41;;;13.61;80.88
22582;BME280;47125;48.542;9.052;2023-05-16T07:06:38;95798.59;;;13.50;80.04
22582;BME280;47125;48.542;9.052;2023-05-16T07:16:42;95804.66;;;13.77;79.79
22582;BME280;47125;48.542;9.052;2023-05-16T07:26:45;95805.06;;;13.49;79.09
22582;BME280;47125;48.542;9.052;2023-05-16T07:36:49;95802.44;;;13.64;78.90
22582;BME280;47125;48.542;9.052;2023-05-16T07:46:51;95820.75;;;13.77;78.93
22582;BME280;47125;48.542;9.052;2023-05-16T07:56:55;95824.34;;;13.98;78.30
22582;BME280;47125;48.542;9.052;2023-05-16T08:06:58;95822.22;;;14.00;78.28
22582;BME280;47125;48.542;9.052;2023-05-16T08:17:02;95833.75;;;14.00;78.09
22582;BME280;47125;48.542;9.052;2023-05-16T08:27:04;95839.13;;;14.00;77.05
22582;BME280;47125;48.542;9.052;2023-05-16T08:37:08;95836.94;;;13.97;76.24
22582;BME280;47125;48.542;9.052;2023-05-16T08:47:11;95847.75;;;14.12;76.83
22582;BME280;47125;48.542;9.052;2023-05-16T08:57:16;95860.13;;;14.18;77.29
22582;BME280;47125;48.542;9.052;2023-05-16T09:07:19;95865.19;;;14.00;76.43
22582;BME280;47125;48.542;9.052;2023-05-16T09:17:22;95868.44;;;13.60;78.10
22582;BME280;47125;48.542;9.052;2023-05-16T09:27:41;95865.78;;;13.65;77.57
22582;BME280;47125;48.542;9.052;2023-05-16T09:37:45;95870.41;;;13.74;77.42
22582;BME280;47125;48.542;9.052;2023-05-16T09:47:48;95873.63;;;13.76;76.59
22582;BME280;47125;48.542;9.052;2023-05-16T09:57:51;95875.47;;;13.71;77.01
22582;BME280;47125;48.542;9.052;2023-05-16T10:07:54;95872.34;;;13.84;76.80
22582;BME280;47125;48.542;9.052;2023-05-16T10:17:59;95870.56;;;14.00;76.58
22582;BME280;47125;48.542;9.052;2023-05-16T10:28:02;95875.13;;;14.04;75.53
22582;BME280;47125;48.542;9.052;2023-05-16T10:38:07;95867.53;;;13.91;75.14
22582;BME280;47125;48.542;9.052;2023-05-16T10:48:11;95871.34;;;14.00;75.57
22582;BME280;47125;48.542;9.052;2023-05-16T10:58:18;95871.06;;;13.97;76.21
22582;BME280;47125;48.542;9.052;2023-05-16T11:08:24;95890.03;;;13.80;76.80
22582;BME280;47125;48.542;9.052;2023-05-16T11:18:30;95889.81;;;13.87;77.90
22582;BME280;47125;48.542;9.052;2023-05-16T11:28:33;95896.00;;;13.92;78.02
22582;BME280;47125;48.542;9.052;2023-05-16T11:38:37;95912.00;;;13.77;78.81
22582;BME280;47125;48.542;9.052;2023-05-16T11:48:43;95899.44;;;13.82;81.07
22582;BME280;47125;48.542;9.052;2023-05-16T11:58:48;95913.53;;;13.63;83.09
22582;BME280;47125;48.542;9.052;2023-05-16T12:08:51;95917.94;;;13.42;85.95
22582;BME280;47125;48.542;9.052;2023-05-16T12:18:55;95914.25;;;13.16;85.66
22582;BME280;47125;48.542;9.052;2023-05-16T12:28:58;95924.06;;;13.38;87.92
22582;BME280;47125;48.542;9.052;2023-05-16T12:39:04;95915.16;;;13.27;89.06
22582;BME280;47125;48.542;9.052;2023-05-16T12:49:09;95924.84;;;13.33;87.20
22582;BME280;47125;48.542;9.052;2023-05-16T12:59:13;95918.72;;;13.38;86.09
22582;BME280;47125;48.542;9.052;2023-05-16T13:09:16;95937.59;;;13.53;87.02
22582;BME280;47125;48.542;9.052;2023-05-16T13:19:21;95943.78;;;13.53;85.66
22582;BME280;47125;48.542;9.052;2023-05-16T13:29:24;95958.94;;;13.38;84.78
22582;BME280;47125;48.542;9.052;2023-05-16T13:39:28;95965.06;;;13.06;84.03
22582;BME280;47125;48.542;9.052;2023-05-16T13:49:30;95970.66;;;13.05;82.87
22582;BME280;47125;48.542;9.052;2023-05-16T13:59:34;95975.72;;;13.01;83.62
22582;BME280;47125;48.542;9.052;2023-05-16T14:09:57;95980.31;;;12.79;82.16
22582;BME280;47125;48.542;9.052;2023-05-16T14:20:00;95988.38;;;12.79;81.44
22582;BME280;47125;48.542;9.052;2023-05-16T14:30:04;95997.28;;;12.63;81.45
22582;BME280;47125;48.542;9.052;2023-05-16T14:40:09;95995.78;;;12.72;82.82
22582;BME280;47125;48.542;9.052;2023-05-16T14:50:12;96008.13;;;12.73;81.78
22582;BME280;47125;48.542;9.052;2023-05-16T15:00:17;96029.94;;;12.82;80.88
22582;BME280;47125;48.542;9.052;2023-05-16T15:10:24;96034.59;;;12.69;80.87
22582;BME280;47125;48.542;9.052;2023-05-16T15:20:28;96034.34;;;12.93;80.81
22582;BME280;47125;48.542;9.052;2023-05-16T15:30:31;96025.25;;;12.94;80.36
22582;BME280;47125;48.542;9.052;2023-05-16T15:40:35;96045.03;;;13.09;81.19
22582;BME280;47125;48.542;9.052;2023-05-16T15:50:37;96043.41;;;13.08;79.41
22582;BME280;47125;48.542;9.052;2023-05-16T16:00:41;96031.78;;;13.24;78.82
22582;BME280;47125;48.542;9.052;2023-05-16T16:10:45;96034.13;;;13.43;77.23
22582;BME280;47125;48.542;9.052;2023-05-16T16:20:49;96037.75;;;13.32;77.10
22582;BME280;47125;48.542;9.052;2023-05-16T16:30:53;96040.69;;;13.30;74.96
22582;BME280;47125;48.542;9.052;2023-05-16T16:40:56;96042.09;;;13.38;72.81
22582;BME280;47125;48.542;9.052;2023-05-16T16:50:59;96056.34;;;12.95;73.28
22582;BME280;47125;48.542;9.052;2023-05-16T17:01:03;96066.38;;;13.26;72.18
22582;BME280;47125;48.542;9.052;2023-05-16T17:11:07;96064.25;;;13.28;72.77
22582;BME280;47125;48.542;9.052;2023-05-16T17:21:11;96076.44;;;13.14;71.65
22582;BME280;47125;48.542;9.052;2023-05-16T17:31:13;96088.63;;;13.05;71.10
22582;BME280;47125;48.542;9.052;2023-05-16T17:41:17;96092.63;;;13.02;70.85
22582;BME280;47125;48.542;9.052;2023-05-16T17:51:20;96096.22;;;13.08;69.89
22582;BME280;47125;48.542;9.052;2023-05-16T18:01:24;96096.13;;;13.03;70.18
22582;BME280;47125;48.542;9.052;2023-05-16T18:11:26;96112.25;;;12.86;68.80
22582;BME280;47125;48.542;9.052;2023-05-16T18:21:30;96119.25;;;12.87;68.87
22582;BME280;47125;48.542;9.052;2023-05-16T18:31:33;96129.91;;;12.82;67.97
22582;BME280;47125;48.542;9.052;2023-05-16T18:41:38;96143.16;;;12.72;70.16
22582;BME280;47125;48.542;9.052;2023-05-16T18:51:40;96154.13;;;12.70;65.08
22582;BME280;47125;48.542;9.052;2023-05-16T19:01:44;96156.59;;;12.55;66.11
22582;BME280;47125;48.542;9.052;2023-05-16T19:11:47;96157.63;;;12.38;64.06
22582;BME280;47125;48.542;9.052;2023-05-16T19:21:51;96174.75;;;12.20;64.86
22582;BME280;47125;48.542;9.052;2023-05-16T19:31:53;96185.03;;;11.95;62.24
22582;BME280;47125;48.542;9.052;2023-05-16T19:41:57;96199.38;;;11.89;63.27
22582;BME280;47125;48.542;9.052;2023-05-16T19:52:08;96206.78;;;11.70;60.88
22582;BME280;47125;48.542;9.052;2023-05-16T20:02:14;96207.81;;;11.69;59.73
22582;BME280;47125;48.542;9.052;2023-05-16T20:12:18;96220.28;;;11.63;62.93
22582;BME280;47125;48.542;9.052;2023-05-16T20:22:22;96228.91;;;11.54;60.30
22582;BME280;47125;48.542;9.052;2023-05-16T20:32:24;96240.66;;;11.53;62.26
22582;BME280;47125;48.542;9.052;2023-05-16T20:42:28;96250.69;;;11.46;61.47
22582;BME280;47125;48.542;9.052;2023-05-16T20:52:30;96255.69;;;11.42;61.83
22582;BME280;47125;48.542;9.052;2023-05-16T21:02:34;96261.84;;;11.43;62.74
22582;BME280;47125;48.542;9.052;2023-05-16T21:12:37;96268.34;;;11.47;62.75
22582;BME280;47125;48.542;9.052;2023-05-16T21:22:40;96272.56;;;11.31;61.90
22582;BME280;47125;48.542;9.052;2023-05-16T21:32:43;96289.19;;;11.33;60.53
22582;BME280;47125;48.542;9.052;2023-05-16T21:42:47;96287.78;;;11.31;61.50
22582;BME280;47125;48.542;9.052;2023-05-16T21:52:50;96297.78;;;11.24;62.31
22582;BME280;47125;48.542;9.052;2023-05-16T22:02:53;96292.69;;;11.11;63.83
22582;BME280;47125;48.542;9.052;2023-05-16T22:12:56;96293.97;;;10.96;63.00
22582;BME280;47125;48.542;9.052;2023-05-16T22:23:00;96309.41;;;10.83;62.38
22582;BME280;47125;48.542;9.052;2023-05-16T22:33:02;96307.06;;;10.75;62.98
22582;BME280;47125;48.542;9.052;2023-05-16T22:43:06;96308.66;;;10.64;61.87
22582;BME280;47125;48.542;9.052;2023-05-16T22:53:09;96302.13;;;10.48;63.92
22582;BME280;47125;48.542;9.052;2023-05-16T23:03:12;96309.66;;;10.40;61.66
22582;BME280;47125;48.542;9.052;2023-05-16T23:13:15;96322.63;;;10.36;61.78
22582;BME280;47125;48.542;9.052;2023-05-16T23:23:19;96319.81;;;10.20;59.99
22582;BME280;47125;48.542;9.052;2023-05-16T23:33:21;96341.53;;;10.23;61.11
22582;BME280;47125;48.542;9.052;2023-05-16T23:43:25;96345.59;;;10.08;62.68
22582;BME280;47125;48.542;9.052;2023-05-16T23:53:27;96345.75;;;9.94;62.86
